BWA455 TAPA-TTPP
Flight info
| Callsign | BWA455 |
|---|---|
| Flight time | 1h 1m |
| Altitude | 32000 |
| Route | ANU UM402 EMKIS DCT NAPKO DCT LEXOR DCT TALUS |
| Aircraft | B38M/M-SDE1FGHILORVWXY/HB1 |
Departure
| Time | 2026-04-26 18:11 |
|---|---|
| Airport | V. C. Bird International Airport (TAPA) |
Arrival
| Time | 2026-04-26 19:12 |
|---|---|
| Airport | Piarco International Airport (TTPP) |
| Time | Latitude | Longitude | Altitude | Speed | Heading |
|---|---|---|---|---|---|
| 2026-04-26 17:43 | 17.14098 | -61.79035 | 66 ft | 0 kts | 330° |
| 2026-04-26 18:01 | 17.14086 | -61.79028 | 66 ft | 2 kts | 329° |
| 2026-04-26 18:02 | 17.14072 | -61.79019 | 58 ft | 2 kts | 329° |
| 2026-04-26 18:02 | 17.14063 | -61.79013 | 58 ft | 2 kts | 329° |
| 2026-04-26 18:02 | 17.14048 | -61.78997 | 56 ft | 2 kts | 285° |
| 2026-04-26 18:02 | 17.14046 | -61.78979 | 60 ft | 2 kts | 267° |
| 2026-04-26 18:03 | 17.14049 | -61.78962 | 60 ft | 2 kts | 252° |
| 2026-04-26 18:03 | 17.14052 | -61.78954 | 63 ft | 1 kts | 243° |
| 2026-04-26 18:03 | 17.14052 | -61.78953 | 64 ft | 0 kts | 242° |
| 2026-04-26 18:06 | 17.14052 | -61.78954 | 63 ft | 1 kts | 240° |
| 2026-04-26 18:07 | 17.14040 | -61.78975 | 60 ft | 8 kts | 239° |
| 2026-04-26 18:07 | 17.13990 | -61.79057 | 60 ft | 19 kts | 237° |
| 2026-04-26 18:07 | 17.13871 | -61.79156 | 66 ft | 25 kts | 224° |
| 2026-04-26 18:07 | 17.13798 | -61.79268 | 65 ft | 32 kts | 238° |
| 2026-04-26 18:08 | 17.13615 | -61.79579 | 66 ft | 41 kts | 239° |
| 2026-04-26 18:08 | 17.13488 | -61.79798 | 65 ft | 13 kts | 238° |
| 2026-04-26 18:08 | 17.13417 | -61.79840 | 69 ft | 12 kts | 196° |
| 2026-04-26 18:08 | 17.13330 | -61.79859 | 65 ft | 12 kts | 219° |
| 2026-04-26 18:09 | 17.13264 | -61.79961 | 67 ft | 24 kts | 238° |
| 2026-04-26 18:09 | 17.13151 | -61.80151 | 64 ft | 38 kts | 238° |
| 2026-04-26 18:09 | 17.13018 | -61.80378 | 73 ft | 29 kts | 239° |
| 2026-04-26 18:09 | 17.12875 | -61.80520 | 69 ft | 28 kts | 227° |
| 2026-04-26 18:10 | 17.12874 | -61.80592 | 73 ft | 2 kts | 356° |
| 2026-04-26 18:10 | 17.12916 | -61.80561 | 73 ft | 26 kts | 53° |
| 2026-04-26 18:10 | 17.13140 | -61.80174 | 66 ft | 96 kts | 58° |
| 2026-04-26 18:10 | 17.13591 | -61.79404 | 70 ft | 150 kts | 58° |
| 2026-04-26 18:11 | 17.14135 | -61.78447 | 714 ft | 139 kts | 64° |
| 2026-04-26 18:11 | 17.14430 | -61.77455 | 1025 ft | 158 kts | 99° |
| 2026-04-26 18:11 | 17.14119 | -61.76370 | 1474 ft | 157 kts | 132° |
| 2026-04-26 18:11 | 17.13181 | -61.75771 | 2019 ft | 170 kts | 167° |
| 2026-04-26 18:12 | 17.11928 | -61.75748 | 2514 ft | 190 kts | 175° |
| 2026-04-26 18:12 | 17.10531 | -61.75662 | 2882 ft | 212 kts | 173° |
| 2026-04-26 18:12 | 17.08980 | -61.75555 | 3269 ft | 232 kts | 175° |
| 2026-04-26 18:12 | 17.07393 | -61.75455 | 4202 ft | 226 kts | 175° |
| 2026-04-26 18:13 | 17.05809 | -61.75367 | 4907 ft | 234 kts | 176° |
| 2026-04-26 18:13 | 17.04159 | -61.75271 | 5758 ft | 235 kts | 176° |
| 2026-04-26 18:13 | 17.02481 | -61.75179 | 6416 ft | 250 kts | 176° |
| 2026-04-26 18:13 | 17.01909 | -61.75146 | 6571 ft | 256 kts | 177° |
| 2026-04-26 18:14 | 16.98863 | -61.74975 | 7805 ft | 268 kts | 177° |
| 2026-04-26 18:14 | 16.96985 | -61.74880 | 8624 ft | 272 kts | 178° |
| 2026-04-26 18:14 | 16.95074 | -61.74784 | 9426 ft | 277 kts | 178° |
| 2026-04-26 18:14 | 16.93123 | -61.74688 | 9871 ft | 283 kts | 178° |
| 2026-04-26 18:15 | 16.91140 | -61.74588 | 10300 ft | 287 kts | 178° |
| 2026-04-26 18:15 | 16.89055 | -61.74481 | 10812 ft | 307 kts | 178° |
| 2026-04-26 18:15 | 16.86889 | -61.74362 | 11379 ft | 323 kts | 178° |
| 2026-04-26 18:15 | 16.84601 | -61.74238 | 12077 ft | 336 kts | 178° |
| 2026-04-26 18:16 | 16.82253 | -61.74117 | 13003 ft | 340 kts | 179° |
| 2026-04-26 18:16 | 16.77424 | -61.73882 | 14597 ft | 352 kts | 179° |
| 2026-04-26 18:16 | 16.74970 | -61.73763 | 15439 ft | 355 kts | 180° |
| 2026-04-26 18:17 | 16.72491 | -61.73643 | 16241 ft | 358 kts | 180° |
| 2026-04-26 18:17 | 16.69991 | -61.73523 | 17028 ft | 361 kts | 180° |
| 2026-04-26 18:17 | 16.67461 | -61.73402 | 17768 ft | 366 kts | 180° |
| 2026-04-26 18:17 | 16.64908 | -61.73279 | 18470 ft | 369 kts | 180° |
| 2026-04-26 18:18 | 16.63206 | -61.73206 | 18872 ft | 370 kts | 182° |
| 2026-04-26 18:18 | 16.60639 | -61.73431 | 19464 ft | 371 kts | 189° |
| 2026-04-26 18:18 | 16.58076 | -61.73796 | 20030 ft | 374 kts | 190° |
| 2026-04-26 18:18 | 16.55481 | -61.74176 | 20605 ft | 377 kts | 190° |
| 2026-04-26 18:19 | 16.52872 | -61.74563 | 21165 ft | 380 kts | 190° |
| 2026-04-26 18:19 | 16.50246 | -61.74955 | 21702 ft | 382 kts | 190° |
| 2026-04-26 18:19 | 16.47604 | -61.75354 | 22223 ft | 385 kts | 190° |
| 2026-04-26 18:19 | 16.44943 | -61.75759 | 22727 ft | 388 kts | 190° |
| 2026-04-26 18:20 | 16.42264 | -61.76170 | 23209 ft | 391 kts | 190° |
| 2026-04-26 18:20 | 16.39566 | -61.76586 | 23668 ft | 393 kts | 190° |
| 2026-04-26 18:20 | 16.36849 | -61.77005 | 24032 ft | 396 kts | 190° |
| 2026-04-26 18:20 | 16.35044 | -61.77280 | 24275 ft | 397 kts | 190° |
| 2026-04-26 18:21 | 16.31370 | -61.77837 | 24747 ft | 401 kts | 190° |
| 2026-04-26 18:21 | 16.28597 | -61.78253 | 25101 ft | 403 kts | 189° |
| 2026-04-26 18:21 | 16.25783 | -61.78209 | 25458 ft | 409 kts | 169° |
| 2026-04-26 18:21 | 16.23118 | -61.77133 | 25833 ft | 415 kts | 155° |
| 2026-04-26 18:22 | 16.20539 | -61.75736 | 26100 ft | 420 kts | 155° |
| 2026-04-26 18:22 | 16.17939 | -61.74327 | 26436 ft | 422 kts | 155° |
| 2026-04-26 18:22 | 16.15329 | -61.72906 | 26792 ft | 424 kts | 155° |
| 2026-04-26 18:22 | 16.12663 | -61.71675 | 27066 ft | 424 kts | 166° |
| 2026-04-26 18:23 | 16.09788 | -61.71087 | 27398 ft | 423 kts | 174° |
| 2026-04-26 18:23 | 16.06855 | -61.70733 | 27651 ft | 426 kts | 177° |
| 2026-04-26 18:23 | 16.03896 | -61.70479 | 27993 ft | 427 kts | 178° |
| 2026-04-26 18:23 | 16.00921 | -61.70283 | 28292 ft | 430 kts | 179° |
| 2026-04-26 18:24 | 15.97924 | -61.70112 | 28615 ft | 432 kts | 179° |
| 2026-04-26 18:24 | 15.94911 | -61.69957 | 28941 ft | 435 kts | 180° |
| 2026-04-26 18:24 | 15.91880 | -61.69811 | 29251 ft | 438 kts | 180° |
| 2026-04-26 18:24 | 15.88827 | -61.69665 | 29548 ft | 440 kts | 180° |
| 2026-04-26 18:25 | 15.85762 | -61.69520 | 29847 ft | 443 kts | 180° |
| 2026-04-26 18:25 | 15.82671 | -61.69375 | 30130 ft | 445 kts | 180° |
| 2026-04-26 18:25 | 15.79573 | -61.69228 | 30377 ft | 448 kts | 180° |
| 2026-04-26 18:25 | 15.76452 | -61.69082 | 30652 ft | 449 kts | 180° |
| 2026-04-26 18:26 | 15.73320 | -61.68934 | 30892 ft | 451 kts | 180° |
| 2026-04-26 18:26 | 15.70180 | -61.68787 | 31153 ft | 453 kts | 180° |
| 2026-04-26 18:26 | 15.67020 | -61.68639 | 31408 ft | 455 kts | 180° |
| 2026-04-26 18:26 | 15.63852 | -61.68490 | 31666 ft | 457 kts | 180° |
| 2026-04-26 18:27 | 15.60674 | -61.68340 | 31915 ft | 459 kts | 180° |
| 2026-04-26 18:27 | 15.57480 | -61.68190 | 32021 ft | 460 kts | 180° |
| 2026-04-26 18:27 | 15.51108 | -61.67893 | 32001 ft | 457 kts | 180° |
| 2026-04-26 18:28 | 15.44747 | -61.67596 | 32002 ft | 457 kts | 179° |
| 2026-04-26 18:28 | 15.38396 | -61.67300 | 32001 ft | 457 kts | 179° |
| 2026-04-26 18:29 | 15.32037 | -61.67003 | 32000 ft | 460 kts | 179° |
| 2026-04-26 18:29 | 15.25559 | -61.66695 | 31990 ft | 471 kts | 179° |
| 2026-04-26 18:30 | 15.18972 | -61.66385 | 31999 ft | 475 kts | 179° |
| 2026-04-26 18:30 | 15.12373 | -61.66078 | 32000 ft | 474 kts | 179° |
| 2026-04-26 18:31 | 15.05826 | -61.65774 | 31998 ft | 474 kts | 179° |
| 2026-04-26 18:31 | 14.99233 | -61.65468 | 32002 ft | 474 kts | 179° |
| 2026-04-26 18:32 | 14.92636 | -61.65163 | 31999 ft | 474 kts | 179° |
| 2026-04-26 18:32 | 14.86047 | -61.64858 | 31998 ft | 475 kts | 179° |
| 2026-04-26 18:33 | 14.79440 | -61.64552 | 31996 ft | 475 kts | 179° |
| 2026-04-26 18:33 | 14.72832 | -61.64246 | 31990 ft | 475 kts | 179° |
| 2026-04-26 18:34 | 14.66221 | -61.63940 | 31992 ft | 476 kts | 179° |
| 2026-04-26 18:34 | 14.59651 | -61.63636 | 31993 ft | 476 kts | 179° |
| 2026-04-26 18:35 | 14.53035 | -61.63331 | 31989 ft | 476 kts | 179° |
| 2026-04-26 18:35 | 14.46417 | -61.63025 | 31984 ft | 476 kts | 179° |
| 2026-04-26 18:36 | 14.39790 | -61.62719 | 31984 ft | 476 kts | 179° |
| 2026-04-26 18:36 | 14.33171 | -61.62414 | 31988 ft | 476 kts | 179° |
| 2026-04-26 18:37 | 14.26555 | -61.62109 | 31983 ft | 476 kts | 179° |
| 2026-04-26 18:37 | 14.19933 | -61.61780 | 31984 ft | 476 kts | 178° |
| 2026-04-26 18:38 | 14.13326 | -61.61368 | 31984 ft | 476 kts | 178° |
| 2026-04-26 18:38 | 14.06720 | -61.60966 | 31981 ft | 475 kts | 178° |
| 2026-04-26 18:39 | 14.00126 | -61.60565 | 31980 ft | 474 kts | 178° |
| 2026-04-26 18:39 | 13.93539 | -61.60165 | 31984 ft | 474 kts | 179° |
| 2026-04-26 18:40 | 13.86962 | -61.59765 | 31988 ft | 473 kts | 179° |
| 2026-04-26 18:40 | 13.80404 | -61.59367 | 31989 ft | 472 kts | 179° |
| 2026-04-26 18:41 | 13.73859 | -61.58970 | 31979 ft | 470 kts | 179° |
| 2026-04-26 18:41 | 13.67331 | -61.58574 | 31978 ft | 469 kts | 179° |
| 2026-04-26 18:42 | 13.60856 | -61.58184 | 31980 ft | 468 kts | 180° |
| 2026-04-26 18:42 | 13.54368 | -61.58064 | 31982 ft | 466 kts | 181° |
| 2026-04-26 18:43 | 13.47891 | -61.57936 | 31974 ft | 465 kts | 181° |
| 2026-04-26 18:43 | 13.41415 | -61.57804 | 31977 ft | 466 kts | 181° |
| 2026-04-26 18:44 | 13.34940 | -61.57671 | 31974 ft | 466 kts | 181° |
| 2026-04-26 18:44 | 13.28461 | -61.57538 | 31981 ft | 466 kts | 181° |
| 2026-04-26 18:45 | 13.21976 | -61.57406 | 31977 ft | 466 kts | 181° |
| 2026-04-26 18:45 | 13.15495 | -61.57273 | 31972 ft | 466 kts | 181° |
| 2026-04-26 18:46 | 13.09016 | -61.57140 | 31972 ft | 466 kts | 181° |
| 2026-04-26 18:46 | 13.02524 | -61.57008 | 31970 ft | 467 kts | 180° |
| 2026-04-26 18:47 | 12.96025 | -61.56875 | 31969 ft | 467 kts | 180° |
| 2026-04-26 18:47 | 12.89527 | -61.56743 | 31966 ft | 467 kts | 180° |
| 2026-04-26 18:48 | 12.83031 | -61.56610 | 31967 ft | 467 kts | 180° |
| 2026-04-26 18:48 | 12.76517 | -61.56477 | 31968 ft | 468 kts | 180° |
| 2026-04-26 18:49 | 12.70040 | -61.56345 | 31970 ft | 469 kts | 180° |
| 2026-04-26 18:49 | 12.63463 | -61.56211 | 31970 ft | 470 kts | 180° |
| 2026-04-26 18:50 | 12.56953 | -61.56078 | 31976 ft | 471 kts | 180° |
| 2026-04-26 18:50 | 12.50397 | -61.55945 | 31968 ft | 472 kts | 180° |
| 2026-04-26 18:51 | 12.43819 | -61.55811 | 31970 ft | 472 kts | 180° |
| 2026-04-26 18:51 | 12.37244 | -61.55678 | 31972 ft | 472 kts | 180° |
| 2026-04-26 18:52 | 12.30668 | -61.55544 | 31973 ft | 472 kts | 180° |
| 2026-04-26 18:52 | 12.24099 | -61.55410 | 31973 ft | 472 kts | 180° |
| 2026-04-26 18:53 | 12.17532 | -61.55277 | 31972 ft | 472 kts | 180° |
| 2026-04-26 18:53 | 12.10967 | -61.55144 | 31969 ft | 472 kts | 180° |
| 2026-04-26 18:54 | 12.04453 | -61.55012 | 31971 ft | 469 kts | 180° |
| 2026-04-26 18:54 | 11.97930 | -61.54880 | 31970 ft | 469 kts | 180° |
| 2026-04-26 18:55 | 11.91409 | -61.54747 | 31966 ft | 468 kts | 180° |
| 2026-04-26 18:55 | 11.84905 | -61.54616 | 31947 ft | 464 kts | 180° |
| 2026-04-26 18:56 | 11.81700 | -61.54551 | 31264 ft | 461 kts | 180° |
| 2026-04-26 18:56 | 11.78479 | -61.54485 | 30405 ft | 464 kts | 180° |
| 2026-04-26 18:56 | 11.75247 | -61.54420 | 29506 ft | 466 kts | 180° |
| 2026-04-26 18:56 | 11.71994 | -61.54354 | 28560 ft | 468 kts | 179° |
| 2026-04-26 18:57 | 11.68771 | -61.54289 | 27538 ft | 460 kts | 179° |
| 2026-04-26 18:57 | 11.67737 | -61.54268 | 27067 ft | 461 kts | 179° |
| 2026-04-26 18:57 | 11.62283 | -61.54157 | 25100 ft | 472 kts | 179° |
| 2026-04-26 18:57 | 11.59009 | -61.54091 | 24373 ft | 469 kts | 179° |
| 2026-04-26 18:58 | 11.55792 | -61.54027 | 24192 ft | 453 kts | 179° |
| 2026-04-26 18:58 | 11.52772 | -61.53966 | 24028 ft | 428 kts | 179° |
| 2026-04-26 18:58 | 11.49836 | -61.53906 | 23451 ft | 416 kts | 179° |
| 2026-04-26 18:58 | 11.46981 | -61.53849 | 22793 ft | 405 kts | 179° |
| 2026-04-26 18:59 | 11.44202 | -61.53793 | 22143 ft | 395 kts | 179° |
| 2026-04-26 18:59 | 11.41484 | -61.53738 | 21508 ft | 386 kts | 179° |
| 2026-04-26 18:59 | 11.38830 | -61.53684 | 20882 ft | 378 kts | 179° |
| 2026-04-26 18:59 | 11.36224 | -61.53632 | 20267 ft | 371 kts | 179° |
| 2026-04-26 19:00 | 11.33658 | -61.53580 | 19669 ft | 366 kts | 178° |
| 2026-04-26 19:00 | 11.31126 | -61.53529 | 19014 ft | 363 kts | 178° |
| 2026-04-26 19:00 | 11.28615 | -61.53475 | 18381 ft | 359 kts | 178° |
| 2026-04-26 19:00 | 11.26134 | -61.53425 | 17664 ft | 355 kts | 178° |
| 2026-04-26 19:01 | 11.23678 | -61.53376 | 16946 ft | 352 kts | 178° |
| 2026-04-26 19:01 | 11.21236 | -61.53326 | 16234 ft | 348 kts | 178° |
| 2026-04-26 19:01 | 11.18819 | -61.53277 | 15548 ft | 345 kts | 177° |
| 2026-04-26 19:01 | 11.16429 | -61.53229 | 14882 ft | 342 kts | 177° |
| 2026-04-26 19:02 | 11.14097 | -61.53183 | 14233 ft | 340 kts | 177° |
| 2026-04-26 19:02 | 11.11698 | -61.53135 | 13566 ft | 336 kts | 177° |
| 2026-04-26 19:02 | 11.09390 | -61.53089 | 13073 ft | 327 kts | 176° |
| 2026-04-26 19:02 | 11.08652 | -61.53074 | 12922 ft | 324 kts | 176° |
| 2026-04-26 19:03 | 11.04984 | -61.53001 | 12137 ft | 311 kts | 177° |
| 2026-04-26 19:03 | 11.02836 | -61.52957 | 11678 ft | 306 kts | 176° |
| 2026-04-26 19:03 | 11.00724 | -61.52915 | 11223 ft | 303 kts | 177° |
| 2026-04-26 19:03 | 10.98601 | -61.52872 | 10769 ft | 307 kts | 177° |
| 2026-04-26 19:04 | 10.96458 | -61.52830 | 10312 ft | 310 kts | 177° |
| 2026-04-26 19:04 | 10.94294 | -61.52786 | 9865 ft | 312 kts | 177° |
| 2026-04-26 19:04 | 10.92107 | -61.52742 | 9377 ft | 315 kts | 177° |
| 2026-04-26 19:04 | 10.89912 | -61.52698 | 8890 ft | 317 kts | 177° |
| 2026-04-26 19:05 | 10.85480 | -61.52609 | 7912 ft | 320 kts | 177° |
| 2026-04-26 19:05 | 10.83245 | -61.52564 | 7458 ft | 322 kts | 177° |
| 2026-04-26 19:05 | 10.81000 | -61.52519 | 6997 ft | 323 kts | 177° |
| 2026-04-26 19:06 | 10.79509 | -61.52489 | 6694 ft | 324 kts | 177° |
| 2026-04-26 19:06 | 10.77263 | -61.52444 | 6336 ft | 321 kts | 177° |
| 2026-04-26 19:06 | 10.75039 | -61.52399 | 5975 ft | 318 kts | 177° |
| 2026-04-26 19:06 | 10.72834 | -61.52355 | 5611 ft | 315 kts | 177° |
| 2026-04-26 19:07 | 10.70651 | -61.52312 | 5244 ft | 310 kts | 177° |
| 2026-04-26 19:07 | 10.68519 | -61.52287 | 4721 ft | 304 kts | 178° |
| 2026-04-26 19:07 | 10.66415 | -61.52279 | 4124 ft | 300 kts | 178° |
| 2026-04-26 19:07 | 10.64339 | -61.52270 | 3557 ft | 297 kts | 178° |
| 2026-04-26 19:08 | 10.62307 | -61.52131 | 2972 ft | 290 kts | 163° |
| 2026-04-26 19:08 | 10.60598 | -61.51129 | 2392 ft | 284 kts | 133° |
| 2026-04-26 19:08 | 10.59647 | -61.49409 | 1900 ft | 278 kts | 104° |
| 2026-04-26 19:08 | 10.59527 | -61.47537 | 1845 ft | 248 kts | 91° |
| 2026-04-26 19:09 | 10.59524 | -61.45910 | 1709 ft | 214 kts | 92° |
| 2026-04-26 19:09 | 10.59633 | -61.44499 | 1590 ft | 186 kts | 83° |
| 2026-04-26 19:09 | 10.59685 | -61.43267 | 1565 ft | 167 kts | 97° |
| 2026-04-26 19:09 | 10.59541 | -61.42141 | 1430 ft | 157 kts | 95° |
| 2026-04-26 19:10 | 10.59512 | -61.41050 | 1214 ft | 152 kts | 92° |
| 2026-04-26 19:10 | 10.59517 | -61.39984 | 995 ft | 151 kts | 91° |
| 2026-04-26 19:10 | 10.59520 | -61.38917 | 796 ft | 151 kts | 92° |
| 2026-04-26 19:10 | 10.59523 | -61.37841 | 593 ft | 152 kts | 89° |
| 2026-04-26 19:11 | 10.59528 | -61.36788 | 385 ft | 147 kts | 91° |
| 2026-04-26 19:11 | 10.59545 | -61.35746 | 189 ft | 148 kts | 93° |
| 2026-04-26 19:11 | 10.59538 | -61.34713 | 30 ft | 146 kts | 92° |
| 2026-04-26 19:11 | 10.59537 | -61.33816 | 19 ft | 98 kts | 90° |
| 2026-04-26 19:12 | 10.59539 | -61.33329 | 20 ft | 46 kts | 89° |
| 2026-04-26 19:12 | 10.59540 | -61.33050 | 19 ft | 28 kts | 89° |
| 2026-04-26 19:12 | 10.59656 | -61.32958 | 19 ft | 23 kts | 353° |
| 2026-04-26 19:12 | 10.59711 | -61.33040 | 19 ft | 14 kts | 272° |
| 2026-04-26 19:13 | 10.59712 | -61.33147 | 19 ft | 16 kts | 270° |
| 2026-04-26 19:13 | 10.59711 | -61.33269 | 19 ft | 18 kts | 269° |
| 2026-04-26 19:13 | 10.59710 | -61.33406 | 19 ft | 20 kts | 270° |
| 2026-04-26 19:13 | 10.59709 | -61.33558 | 19 ft | 22 kts | 269° |
| 2026-04-26 19:14 | 10.59710 | -61.33707 | 19 ft | 12 kts | 278° |
| 2026-04-26 19:14 | 10.59756 | -61.33736 | 19 ft | 8 kts | 352° |
| 2026-04-26 19:14 | 10.59822 | -61.33741 | 19 ft | 11 kts | 360° |
| 2026-04-26 19:14 | 10.59878 | -61.33741 | 19 ft | 13 kts | 0° |
| 2026-04-26 19:15 | 10.59977 | -61.33742 | 19 ft | 5 kts | 346° |
| 2026-04-26 19:15 | 10.59999 | -61.33765 | 20 ft | 5 kts | 295° |
| 2026-04-26 19:15 | 10.60013 | -61.33801 | 19 ft | 5 kts | 291° |
| 2026-04-26 19:15 | 10.60015 | -61.33808 | 21 ft | 0 kts | 291° |